Andes — 5BFM3 — position and weather

sailwx.info

Track history (hours):
 
Tides and Currents Weather Stations Pressure Air Temp Water Temp Dewpoint Dewpoint Depression Visibility Wind Speed Wind Dir Waves Ship Positions

Andes

Last reported at 2016-Feb-10 14:33 UTC. Time now 2016-Feb-10 22:12 UTC.
Position N 29°44' W 095°09'.

Length 182 m; draft 9.4 m.

Type: Ship. MMSI: 209394000.

Date/timePositionNaut miles runAvg speedWind from/ knotsBaromVisibWave heightAir tempDewpointWater temp
2016-Feb-10 14:33N 29°44' W 095°09'5 5.1
2016-Feb-10 13:33N 29°44' W 095°03'9 9.4
2016-Feb-10 12:33N 29°36' W 094°57'1313.1
2016-Feb-10 11:33N 29°25' W 094°50'3 3.1
2016-Feb-10 10:31N 29°23' W 094°52'1 0.1
2016-Feb-09 07:28N 29°22' W 094°53'1 1.5
2016-Feb-09 06:34N 29°23' W 094°52'  
2016-Feb-03 06:21N 39°23' W 072°53'1612.7
2016-Feb-03 05:04N 39°37' W 073°04'712.8
2016-Feb-03 04:31N 39°43' W 073°08'2613.1
2016-Feb-03 02:31N 40°05' W 073°26'2813.3
2016-Feb-03 00:26N 40°26' W 073°49'1011.3
2016-Feb-02 23:33N 40°31' W 074°01'7 7.0
2016-Feb-02 22:31N 40°38' W 074°04'0 0.2
2016-Feb-02 21:31N 40°38' W 074°04'0 0.0
2016-Feb-02 20:31N 40°38' W 074°04'0 0.0
2016-Feb-02 19:31N 40°38' W 074°04'0 0.0
2016-Feb-02 18:31N 40°38' W 074°04'0 0.0
2016-Feb-02 17:31N 40°38' W 074°04'0 0.3
2016-Feb-02 16:33N 40°39' W 074°04'6 5.7
2016-Feb-02 15:33N 40°38' W 074°12'4 0.1
2016-Feb-01 08:17N 40°34' W 074°13'6 3.2
2016-Feb-01 06:32N 40°30' W 074°08'1010.2
2016-Feb-01 05:33N 40°27' W 073°55'9 8.2
2016-Feb-01 04:29N 40°27' W 073°44'6 1.3
2016-Jan-31 23:33N 40°30' W 073°36'4 0.9
2016-Jan-31 19:33N 40°29' W 073°41'1010.4
2016-Jan-31 18:33N 40°19' W 073°34'  
Track history (hours):
 
Tides and Currents Weather Stations Pressure Air Temp Water Temp Dewpoint Dewpoint Depression Visibility Wind Speed Wind Dir Waves Ship Positions

Andes

Last reported at 2016-Feb-10 14:33 UTC. Time now 2016-Feb-10 22:12 UTC.
Position N 29°44' W 095°09'.

Length 182 m; draft 9.4 m.

Type: Ship. MMSI: 209394000.

Date/timePositionNaut miles runAvg speedWind from/ knotsBaromVisibWave heightAir tempDewpointWater temp
2016-Feb-10 14:33N 29°44' W 095°09'5 5.1
2016-Feb-10 13:33N 29°44' W 095°03'9 9.4
2016-Feb-10 12:33N 29°36' W 094°57'1313.1
2016-Feb-10 11:33N 29°25' W 094°50'3 3.1
2016-Feb-10 10:31N 29°23' W 094°52'1 0.1
2016-Feb-09 07:28N 29°22' W 094°53'1 1.5
2016-Feb-09 06:34N 29°23' W 094°52'  
2016-Feb-03 06:21N 39°23' W 072°53'1612.7
2016-Feb-03 05:04N 39°37' W 073°04'712.8
2016-Feb-03 04:31N 39°43' W 073°08'2613.1
2016-Feb-03 02:31N 40°05' W 073°26'2813.3
2016-Feb-03 00:26N 40°26' W 073°49'1011.3
2016-Feb-02 23:33N 40°31' W 074°01'7 7.0
2016-Feb-02 22:31N 40°38' W 074°04'0 0.2
2016-Feb-02 21:31N 40°38' W 074°04'0 0.0
2016-Feb-02 20:31N 40°38' W 074°04'0 0.0
2016-Feb-02 19:31N 40°38' W 074°04'0 0.0
2016-Feb-02 18:31N 40°38' W 074°04'0 0.0
2016-Feb-02 17:31N 40°38' W 074°04'0 0.3
2016-Feb-02 16:33N 40°39' W 074°04'6 5.7
2016-Feb-02 15:33N 40°38' W 074°12'4 0.1
2016-Feb-01 08:17N 40°34' W 074°13'6 3.2
2016-Feb-01 06:32N 40°30' W 074°08'1010.2
2016-Feb-01 05:33N 40°27' W 073°55'9 8.2
2016-Feb-01 04:29N 40°27' W 073°44'6 1.3
2016-Jan-31 23:33N 40°30' W 073°36'4 0.9
2016-Jan-31 19:33N 40°29' W 073°41'1010.4
2016-Jan-31 18:33N 40°19' W 073°34'  

Dump ship's entire track history